sensor_id;sensor_type;location;lat;lon;timestamp;temperature;humidity
29031;DHT22;16122;50.236;11.734;2022-10-23T00:01:16;17.40;90.70
29031;DHT22;16122;50.236;11.734;2022-10-23T00:03:42;17.40;90.60
29031;DHT22;16122;50.236;11.734;2022-10-23T00:06:09;17.40;90.60
29031;DHT22;16122;50.236;11.734;2022-10-23T00:08:35;17.40;90.60
29031;DHT22;16122;50.236;11.734;2022-10-23T00:11:06;17.40;90.60
29031;DHT22;16122;50.236;11.734;2022-10-23T00:13:32;17.40;90.60
29031;DHT22;16122;50.236;11.734;2022-10-23T00:15:58;17.40;90.60
29031;DHT22;16122;50.236;11.734;2022-10-23T00:18:24;17.40;90.60
29031;DHT22;16122;50.236;11.734;2022-10-23T00:20:49;17.30;90.50
29031;DHT22;16122;50.236;11.734;2022-10-23T00:23:16;17.40;90.50
29031;DHT22;16122;50.236;11.734;2022-10-23T00:25:42;17.30;90.50
29031;DHT22;16122;50.236;11.734;2022-10-23T00:28:07;17.40;90.50
29031;DHT22;16122;50.236;11.734;2022-10-23T00:30:33;17.30;90.40
29031;DHT22;16122;50.236;11.734;2022-10-23T00:32:59;17.30;90.40
29031;DHT22;16122;50.236;11.734;2022-10-23T00:35:25;17.40;90.40
29031;DHT22;16122;50.236;11.734;2022-10-23T00:37:51;17.30;90.30
29031;DHT22;16122;50.236;11.734;2022-10-23T00:40:17;17.30;90.30
29031;DHT22;16122;50.236;11.734;2022-10-23T00:42:43;17.40;90.30
29031;DHT22;16122;50.236;11.734;2022-10-23T00:47:34;17.40;90.20
29031;DHT22;16122;50.236;11.734;2022-10-23T00:50:00;17.30;90.10
29031;DHT22;16122;50.236;11.734;2022-10-23T00:52:27;17.30;90.10
29031;DHT22;16122;50.236;11.734;2022-10-23T00:54:55;17.30;90.10
29031;DHT22;16122;50.236;11.734;2022-10-23T00:57:21;17.30;90.00
29031;DHT22;16122;50.236;11.734;2022-10-23T00:59:47;17.30;90.10
29031;DHT22;16122;50.236;11.734;2022-10-23T01:02:13;17.30;90.00
29031;DHT22;16122;50.236;11.734;2022-10-23T01:04:39;17.30;90.00
29031;DHT22;16122;50.236;11.734;2022-10-23T01:12:24;17.30;89.80
29031;DHT22;16122;50.236;11.734;2022-10-23T01:15:03;17.30;89.80
29031;DHT22;16122;50.236;11.734;2022-10-23T01:17:55;17.30;89.70
29031;DHT22;16122;50.236;11.734;2022-10-23T01:31:00;17.30;89.40
29031;DHT22;16122;50.236;11.734;2022-10-23T01:33:38;17.30;89.40
29031;DHT22;16122;50.236;11.734;2022-10-23T01:36:11;17.30;89.30
29031;DHT22;16122;50.236;11.734;2022-10-23T01:38:55;17.20;89.20
29031;DHT22;16122;50.236;11.734;2022-10-23T01:44:23;17.20;89.10
29031;DHT22;16122;50.236;11.734;2022-10-23T01:46:52;17.20;89.20
29031;DHT22;16122;50.236;11.734;2022-10-23T01:49:20;17.20;89.20
29031;DHT22;16122;50.236;11.734;2022-10-23T01:51:57;17.20;89.20
29031;DHT22;16122;50.236;11.734;2022-10-23T01:54:29;17.20;89.20
29031;DHT22;16122;50.236;11.734;2022-10-23T01:56:57;17.20;89.00
29031;DHT22;16122;50.236;11.734;2022-10-23T01:59:31;17.20;89.10
29031;DHT22;16122;50.236;11.734;2022-10-23T02:02:01;17.20;89.10
29031;DHT22;16122;50.236;11.734;2022-10-23T02:04:49;17.20;89.10
29031;DHT22;16122;50.236;11.734;2022-10-23T02:07:18;17.20;89.10
29031;DHT22;16122;50.236;11.734;2022-10-23T02:09:44;17.20;89.00
29031;DHT22;16122;50.236;11.734;2022-10-23T02:12:22;17.20;89.00
29031;DHT22;16122;50.236;11.734;2022-10-23T02:14:59;17.20;88.90
29031;DHT22;16122;50.236;11.734;2022-10-23T02:17:45;17.20;88.90
29031;DHT22;16122;50.236;11.734;2022-10-23T02:20:37;17.20;88.90
29031;DHT22;16122;50.236;11.734;2022-10-23T02:23:12;17.20;88.90
29031;DHT22;16122;50.236;11.734;2022-10-23T02:26:07;17.20;88.80
29031;DHT22;16122;50.236;11.734;2022-10-23T02:28:48;17.20;88.70
29031;DHT22;16122;50.236;11.734;2022-10-23T02:31:18;17.20;88.70
29031;DHT22;16122;50.236;11.734;2022-10-23T02:33:47;17.20;88.70
29031;DHT22;16122;50.236;11.734;2022-10-23T02:36:14;17.20;88.60
29031;DHT22;16122;50.236;11.734;2022-10-23T02:38:43;17.20;88.60
29031;DHT22;16122;50.236;11.734;2022-10-23T02:44:55;17.10;88.50
29031;DHT22;16122;50.236;11.734;2022-10-23T02:53:13;17.20;88.50
29031;DHT22;16122;50.236;11.734;2022-10-23T02:56:04;17.10;88.30
29031;DHT22;16122;50.236;11.734;2022-10-23T03:01:03;17.10;88.30
29031;DHT22;16122;50.236;11.734;2022-10-23T03:03:35;17.10;88.30
29031;DHT22;16122;50.236;11.734;2022-10-23T03:06:04;17.10;88.30
29031;DHT22;16122;50.236;11.734;2022-10-23T03:08:40;17.10;88.30
29031;DHT22;16122;50.236;11.734;2022-10-23T03:11:06;17.20;88.40
29031;DHT22;16122;50.236;11.734;2022-10-23T03:13:32;17.10;88.30
29031;DHT22;16122;50.236;11.734;2022-10-23T03:15:58;17.10;88.30
29031;DHT22;16122;50.236;11.734;2022-10-23T03:18:26;17.10;88.20
29031;DHT22;16122;50.236;11.734;2022-10-23T03:20:51;17.10;88.20
29031;DHT22;16122;50.236;11.734;2022-10-23T03:23:20;17.10;88.30
29031;DHT22;16122;50.236;11.734;2022-10-23T03:25:47;17.10;88.20
29031;DHT22;16122;50.236;11.734;2022-10-23T03:28:27;17.10;88.20
29031;DHT22;16122;50.236;11.734;2022-10-23T03:30:53;17.10;88.20
29031;DHT22;16122;50.236;11.734;2022-10-23T03:33:18;17.10;88.10
29031;DHT22;16122;50.236;11.734;2022-10-23T03:35:44;17.10;88.00
29031;DHT22;16122;50.236;11.734;2022-10-23T03:38:14;17.10;88.00
29031;DHT22;16122;50.236;11.734;2022-10-23T03:40:41;17.10;88.00
29031;DHT22;16122;50.236;11.734;2022-10-23T03:43:07;17.10;88.00
29031;DHT22;16122;50.236;11.734;2022-10-23T03:45:36;17.10;87.90
29031;DHT22;16122;50.236;11.734;2022-10-23T03:48:06;17.10;87.80
29031;DHT22;16122;50.236;11.734;2022-10-23T03:50:34;17.10;87.90
29031;DHT22;16122;50.236;11.734;2022-10-23T03:53:01;17.10;87.80
29031;DHT22;16122;50.236;11.734;2022-10-23T03:55:27;17.10;87.80
29031;DHT22;16122;50.236;11.734;2022-10-23T03:57:53;17.10;87.80
29031;DHT22;16122;50.236;11.734;2022-10-23T04:00:20;17.10;87.80
29031;DHT22;16122;50.236;11.734;2022-10-23T04:02:46;17.10;87.80
29031;DHT22;16122;50.236;11.734;2022-10-23T04:05:12;17.10;87.80
29031;DHT22;16122;50.236;11.734;2022-10-23T04:07:41;17.10;87.70
29031;DHT22;16122;50.236;11.734;2022-10-23T04:10:07;17.00;87.60
29031;DHT22;16122;50.236;11.734;2022-10-23T04:12:34;17.10;87.60
29031;DHT22;16122;50.236;11.734;2022-10-23T04:15:00;17.10;87.60
29031;DHT22;16122;50.236;11.734;2022-10-23T04:17:26;17.10;87.60
29031;DHT22;16122;50.236;11.734;2022-10-23T04:19:51;17.10;87.60
29031;DHT22;16122;50.236;11.734;2022-10-23T04:22:17;17.00;87.50
29031;DHT22;16122;50.236;11.734;2022-10-23T04:24:43;17.00;87.40
29031;DHT22;16122;50.236;11.734;2022-10-23T04:27:16;17.00;87.30
29031;DHT22;16122;50.236;11.734;2022-10-23T04:29:42;17.00;87.60
29031;DHT22;16122;50.236;11.734;2022-10-23T04:32:09;17.00;87.30
29031;DHT22;16122;50.236;11.734;2022-10-23T04:34:35;17.00;87.20
29031;DHT22;16122;50.236;11.734;2022-10-23T04:37:02;17.00;87.20
29031;DHT22;16122;50.236;11.734;2022-10-23T04:39:28;17.00;87.10
29031;DHT22;16122;50.236;11.734;2022-10-23T04:41:54;17.00;87.10
29031;DHT22;16122;50.236;11.734;2022-10-23T04:44:20;17.00;87.00
29031;DHT22;16122;50.236;11.734;2022-10-23T04:46:46;17.00;87.10
29031;DHT22;16122;50.236;11.734;2022-10-23T04:49:11;17.00;87.00
29031;DHT22;16122;50.236;11.734;2022-10-23T04:51:49;17.00;87.00
29031;DHT22;16122;50.236;11.734;2022-10-23T04:54:39;17.00;87.00
29031;DHT22;16122;50.236;11.734;2022-10-23T04:57:10;17.00;87.10
29031;DHT22;16122;50.236;11.734;2022-10-23T04:59:53;17.00;87.10
29031;DHT22;16122;50.236;11.734;2022-10-23T05:02:18;17.00;87.20
29031;DHT22;16122;50.236;11.734;2022-10-23T05:04:50;17.00;87.10
29031;DHT22;16122;50.236;11.734;2022-10-23T05:07:35;17.00;87.00
29031;DHT22;16122;50.236;11.734;2022-10-23T05:10:11;17.00;87.00
29031;DHT22;16122;50.236;11.734;2022-10-23T05:12:47;17.00;87.00
29031;DHT22;16122;50.236;11.734;2022-10-23T05:15:13;17.00;87.20
29031;DHT22;16122;50.236;11.734;2022-10-23T05:17:40;17.00;87.70
29031;DHT22;16122;50.236;11.734;2022-10-23T05:20:17;17.00;87.70
29031;DHT22;16122;50.236;11.734;2022-10-23T05:22:45;17.00;87.60
29031;DHT22;16122;50.236;11.734;2022-10-23T05:25:15;17.00;88.10
29031;DHT22;16122;50.236;11.734;2022-10-23T05:27:47;17.00;88.60
29031;DHT22;16122;50.236;11.734;2022-10-23T05:30:15;17.00;88.70
29031;DHT22;16122;50.236;11.734;2022-10-23T05:32:41;17.00;88.70
29031;DHT22;16122;50.236;11.734;2022-10-23T05:35:10;17.00;88.80
29031;DHT22;16122;50.236;11.734;2022-10-23T05:37:39;17.00;88.70
29031;DHT22;16122;50.236;11.734;2022-10-23T05:40:11;17.00;89.60
29031;DHT22;16122;50.236;11.734;2022-10-23T05:42:39;17.00;88.90
29031;DHT22;16122;50.236;11.734;2022-10-23T05:45:05;17.00;88.90
29031;DHT22;16122;50.236;11.734;2022-10-23T05:48:01;17.00;88.80
29031;DHT22;16122;50.236;11.734;2022-10-23T05:50:47;17.00;88.80
29031;DHT22;16122;50.236;11.734;2022-10-23T05:53:17;17.00;89.00
29031;DHT22;16122;50.236;11.734;2022-10-23T05:55:53;17.00;89.00
29031;DHT22;16122;50.236;11.734;2022-10-23T05:58:38;17.00;89.20
29031;DHT22;16122;50.236;11.734;2022-10-23T06:01:28;17.00;89.20
29031;DHT22;16122;50.236;11.734;2022-10-23T06:04:02;17.00;89.20
29031;DHT22;16122;50.236;11.734;2022-10-23T06:06:45;17.00;89.30
29031;DHT22;16122;50.236;11.734;2022-10-23T06:09:13;17.00;89.20
29031;DHT22;16122;50.236;11.734;2022-10-23T06:11:40;17.00;89.20
29031;DHT22;16122;50.236;11.734;2022-10-23T06:14:12;17.00;89.30
29031;DHT22;16122;50.236;11.734;2022-10-23T06:16:38;17.00;89.60
29031;DHT22;16122;50.236;11.734;2022-10-23T06:19:04;17.00;88.50
29031;DHT22;16122;50.236;11.734;2022-10-23T06:21:35;17.00;88.20
29031;DHT22;16122;50.236;11.734;2022-10-23T06:24:02;17.00;88.40
29031;DHT22;16122;50.236;11.734;2022-10-23T06:26:50;17.00;88.70
29031;DHT22;16122;50.236;11.734;2022-10-23T06:29:20;17.00;88.60
29031;DHT22;16122;50.236;11.734;2022-10-23T06:31:48;17.00;88.60
29031;DHT22;16122;50.236;11.734;2022-10-23T06:34:14;17.00;88.50
29031;DHT22;16122;50.236;11.734;2022-10-23T06:36:41;17.10;88.70
29031;DHT22;16122;50.236;11.734;2022-10-23T06:39:25;17.10;88.50
29031;DHT22;16122;50.236;11.734;2022-10-23T06:42:00;17.10;88.60
29031;DHT22;16122;50.236;11.734;2022-10-23T06:44:45;17.00;88.50
29031;DHT22;16122;50.236;11.734;2022-10-23T06:47:15;17.10;88.70
29031;DHT22;16122;50.236;11.734;2022-10-23T06:49:59;17.10;88.70
29031;DHT22;16122;50.236;11.734;2022-10-23T06:52:25;17.10;88.70
29031;DHT22;16122;50.236;11.734;2022-10-23T06:54:53;17.10;88.70
29031;DHT22;16122;50.236;11.734;2022-10-23T06:57:23;17.10;88.70
29031;DHT22;16122;50.236;11.734;2022-10-23T06:59:49;17.10;88.70
29031;DHT22;16122;50.236;11.734;2022-10-23T07:02:16;17.00;88.60
29031;DHT22;16122;50.236;11.734;2022-10-23T07:04:42;17.10;88.80
29031;DHT22;16122;50.236;11.734;2022-10-23T07:07:16;17.10;88.70
29031;DHT22;16122;50.236;11.734;2022-10-23T07:09:47;17.10;88.70
29031;DHT22;16122;50.236;11.734;2022-10-23T07:12:37;17.10;88.80
29031;DHT22;16122;50.236;11.734;2022-10-23T07:15:23;17.10;88.90
29031;DHT22;16122;50.236;11.734;2022-10-23T07:17:51;17.10;88.80
29031;DHT22;16122;50.236;11.734;2022-10-23T07:20:18;17.10;88.60
29031;DHT22;16122;50.236;11.734;2022-10-23T07:22:50;17.10;88.70
29031;DHT22;16122;50.236;11.734;2022-10-23T07:25:26;17.10;88.90
29031;DHT22;16122;50.236;11.734;2022-10-23T07:27:52;17.10;89.00
29031;DHT22;16122;50.236;11.734;2022-10-23T07:30:21;17.10;89.10
29031;DHT22;16122;50.236;11.734;2022-10-23T07:32:50;17.10;89.20
29031;DHT22;16122;50.236;11.734;2022-10-23T07:35:35;17.10;85.20
29031;DHT22;16122;50.236;11.734;2022-10-23T07:38:09;17.10;87.50
29031;DHT22;16122;50.236;11.734;2022-10-23T07:40:45;17.10;88.60
29031;DHT22;16122;50.236;11.734;2022-10-23T07:46:38;17.10;88.80
29031;DHT22;16122;50.236;11.734;2022-10-23T07:49:08;17.10;88.80
29031;DHT22;16122;50.236;11.734;2022-10-23T07:51:38;17.10;88.80
29031;DHT22;16122;50.236;11.734;2022-10-23T07:54:06;17.10;88.70
29031;DHT22;16122;50.236;11.734;2022-10-23T07:56:59;17.20;88.70
29031;DHT22;16122;50.236;11.734;2022-10-23T07:59:47;17.20;88.70
29031;DHT22;16122;50.236;11.734;2022-10-23T08:02:17;17.20;88.80
29031;DHT22;16122;50.236;11.734;2022-10-23T08:04:48;17.20;88.70
29031;DHT22;16122;50.236;11.734;2022-10-23T08:07:28;17.20;88.70
29031;DHT22;16122;50.236;11.734;2022-10-23T08:09:56;17.20;88.80
29031;DHT22;16122;50.236;11.734;2022-10-23T08:12:21;17.20;88.60
29031;DHT22;16122;50.236;11.734;2022-10-23T08:14:47;17.20;89.00
29031;DHT22;16122;50.236;11.734;2022-10-23T08:17:13;17.20;88.90
29031;DHT22;16122;50.236;11.734;2022-10-23T08:20:06;17.20;89.00
29031;DHT22;16122;50.236;11.734;2022-10-23T08:22:38;17.20;89.00
29031;DHT22;16122;50.236;11.734;2022-10-23T08:25:04;17.20;89.20
29031;DHT22;16122;50.236;11.734;2022-10-23T08:27:30;17.20;89.40
29031;DHT22;16122;50.236;11.734;2022-10-23T08:29:57;17.20;89.70
29031;DHT22;16122;50.236;11.734;2022-10-23T08:32:22;17.20;90.00
29031;DHT22;16122;50.236;11.734;2022-10-23T08:34:57;17.20;90.00
29031;DHT22;16122;50.236;11.734;2022-10-23T08:37:25;17.20;90.10
29031;DHT22;16122;50.236;11.734;2022-10-23T08:39:51;17.30;90.00
29031;DHT22;16122;50.236;11.734;2022-10-23T08:42:52;17.30;89.80
29031;DHT22;16122;50.236;11.734;2022-10-23T08:45:34;17.30;89.80
29031;DHT22;16122;50.236;11.734;2022-10-23T08:48:50;17.30;89.50
29031;DHT22;16122;50.236;11.734;2022-10-23T08:51:46;17.30;89.30
29031;DHT22;16122;50.236;11.734;2022-10-23T08:54:38;17.30;89.00
29031;DHT22;16122;50.236;11.734;2022-10-23T08:57:11;17.30;88.70
29031;DHT22;16122;50.236;11.734;2022-10-23T08:59:48;17.30;88.90
29031;DHT22;16122;50.236;11.734;2022-10-23T09:02:23;17.30;89.00
29031;DHT22;16122;50.236;11.734;2022-10-23T09:04:53;17.30;89.00
29031;DHT22;16122;50.236;11.734;2022-10-23T09:12:16;17.30;88.80
29031;DHT22;16122;50.236;11.734;2022-10-23T09:20:14;17.30;88.60
29031;DHT22;16122;50.236;11.734;2022-10-23T09:22:37;17.30;87.90
29031;DHT22;16122;50.236;11.734;2022-10-23T09:25:14;17.30;87.90
29031;DHT22;16122;50.236;11.734;2022-10-23T09:27:49;17.30;87.30
29031;DHT22;16122;50.236;11.734;2022-10-23T09:30:48;17.30;85.20
29031;DHT22;16122;50.236;11.734;2022-10-23T09:33:23;17.30;84.90
29031;DHT22;16122;50.236;11.734;2022-10-23T09:35:57;17.30;84.40
29031;DHT22;16122;50.236;11.734;2022-10-23T09:41:06;17.40;87.10
29031;DHT22;16122;50.236;11.734;2022-10-23T09:43:34;17.30;85.70
29031;DHT22;16122;50.236;11.734;2022-10-23T09:46:05;17.40;85.50
29031;DHT22;16122;50.236;11.734;2022-10-23T09:48:33;17.40;86.90
29031;DHT22;16122;50.236;11.734;2022-10-23T09:51:01;17.40;87.20
29031;DHT22;16122;50.236;11.734;2022-10-23T09:55:55;17.40;87.10
29031;DHT22;16122;50.236;11.734;2022-10-23T09:58:35;17.40;87.10
29031;DHT22;16122;50.236;11.734;2022-10-23T10:01:03;17.40;87.60
29031;DHT22;16122;50.236;11.734;2022-10-23T10:03:49;17.40;89.40
29031;DHT22;16122;50.236;11.734;2022-10-23T10:06:25;17.50;87.90
29031;DHT22;16122;50.236;11.734;2022-10-23T10:08:53;17.50;87.10
29031;DHT22;16122;50.236;11.734;2022-10-23T10:11:36;17.50;88.00
29031;DHT22;16122;50.236;11.734;2022-10-23T10:14:40;17.50;88.90
29031;DHT22;16122;50.236;11.734;2022-10-23T10:17:46;17.50;88.50
29031;DHT22;16122;50.236;11.734;2022-10-23T10:32:12;17.50;90.00
29031;DHT22;16122;50.236;11.734;2022-10-23T10:35:02;17.50;90.20
29031;DHT22;16122;50.236;11.734;2022-10-23T10:40:34;17.50;90.40
29031;DHT22;16122;50.236;11.734;2022-10-23T10:56:37;17.50;90.60
29031;DHT22;16122;50.236;11.734;2022-10-23T10:59:19;17.60;90.80
29031;DHT22;16122;50.236;11.734;2022-10-23T11:01:59;17.60;90.80
29031;DHT22;16122;50.236;11.734;2022-10-23T11:04:51;17.60;90.70
29031;DHT22;16122;50.236;11.734;2022-10-23T11:07:22;17.60;90.70
29031;DHT22;16122;50.236;11.734;2022-10-23T11:09:51;17.60;90.70
29031;DHT22;16122;50.236;11.734;2022-10-23T11:12:19;17.60;90.60
29031;DHT22;16122;50.236;11.734;2022-10-23T11:14:46;17.60;90.50
29031;DHT22;16122;50.236;11.734;2022-10-23T11:17:37;17.60;90.50
29031;DHT22;16122;50.236;11.734;2022-10-23T11:36:49;17.60;90.20
29031;DHT22;16122;50.236;11.734;2022-10-23T11:39:22;17.70;90.10
29031;DHT22;16122;50.236;11.734;2022-10-23T11:44:45;17.70;90.20
29031;DHT22;16122;50.236;11.734;2022-10-23T11:52:35;17.70;88.90
29031;DHT22;16122;50.236;11.734;2022-10-23T11:55:03;17.70;88.50
29031;DHT22;16122;50.236;11.734;2022-10-23T11:57:29;17.70;88.40
29031;DHT22;16122;50.236;11.734;2022-10-23T11:59:56;17.60;88.40
29031;DHT22;16122;50.236;11.734;2022-10-23T12:02:30;17.60;88.40
29031;DHT22;16122;50.236;11.734;2022-10-23T12:04:59;17.60;88.50
29031;DHT22;16122;50.236;11.734;2022-10-23T12:07:32;17.60;88.40
29031;DHT22;16122;50.236;11.734;2022-10-23T12:10:05;17.60;88.40
29031;DHT22;16122;50.236;11.734;2022-10-23T12:12:33;17.70;88.60
29031;DHT22;16122;50.236;11.734;2022-10-23T12:17:35;17.70;88.90
29031;DHT22;16122;50.236;11.734;2022-10-23T12:33:05;17.70;89.50
29031;DHT22;16122;50.236;11.734;2022-10-23T12:35:50;17.70;90.00
29031;DHT22;16122;50.236;11.734;2022-10-23T12:38:24;17.70;89.90
29031;DHT22;16122;50.236;11.734;2022-10-23T12:40:53;17.70;89.90
29031;DHT22;16122;50.236;11.734;2022-10-23T12:45:51;17.70;88.00
29031;DHT22;16122;50.236;11.734;2022-10-23T12:48:19;17.70;87.10
29031;DHT22;16122;50.236;11.734;2022-10-23T12:50:50;17.70;85.40
29031;DHT22;16122;50.236;11.734;2022-10-23T12:53:18;17.70;84.50
29031;DHT22;16122;50.236;11.734;2022-10-23T12:55:50;17.70;80.30
29031;DHT22;16122;50.236;11.734;2022-10-23T12:58:23;17.70;81.20
29031;DHT22;16122;50.236;11.734;2022-10-23T13:00:56;17.60;81.40
29031;DHT22;16122;50.236;11.734;2022-10-23T13:03:24;17.60;81.90
29031;DHT22;16122;50.236;11.734;2022-10-23T13:05:51;17.60;81.90
29031;DHT22;16122;50.236;11.734;2022-10-23T13:08:19;17.60;81.60
29031;DHT22;16122;50.236;11.734;2022-10-23T13:11:05;17.60;81.50
29031;DHT22;16122;50.236;11.734;2022-10-23T13:13:39;17.60;81.40
29031;DHT22;16122;50.236;11.734;2022-10-23T13:16:20;17.60;80.30
29031;DHT22;16122;50.236;11.734;2022-10-23T13:18:47;17.60;80.40
29031;DHT22;16122;50.236;11.734;2022-10-23T13:21:20;17.60;80.30
29031;DHT22;16122;50.236;11.734;2022-10-23T13:23:46;17.60;80.60
29031;DHT22;16122;50.236;11.734;2022-10-23T13:26:37;17.50;78.70
29031;DHT22;16122;50.236;11.734;2022-10-23T13:29:22;17.50;79.50
29031;DHT22;16122;50.236;11.734;2022-10-23T13:31:49;17.50;79.10
29031;DHT22;16122;50.236;11.734;2022-10-23T13:34:29;17.50;79.20
29031;DHT22;16122;50.236;11.734;2022-10-23T13:36:59;17.50;79.20
29031;DHT22;16122;50.236;11.734;2022-10-23T13:39:31;17.50;79.10
29031;DHT22;16122;50.236;11.734;2022-10-23T13:42:09;17.50;78.80
29031;DHT22;16122;50.236;11.734;2022-10-23T13:44:35;17.50;78.60
29031;DHT22;16122;50.236;11.734;2022-10-23T13:47:02;17.50;79.10
29031;DHT22;16122;50.236;11.734;2022-10-23T13:49:28;17.50;78.90
29031;DHT22;16122;50.236;11.734;2022-10-23T13:51:54;17.50;79.10
29031;DHT22;16122;50.236;11.734;2022-10-23T13:54:26;17.50;78.90
29031;DHT22;16122;50.236;11.734;2022-10-23T13:56:52;17.50;78.70
29031;DHT22;16122;50.236;11.734;2022-10-23T13:59:19;17.50;79.10
29031;DHT22;16122;50.236;11.734;2022-10-23T14:01:47;17.60;79.20
29031;DHT22;16122;50.236;11.734;2022-10-23T14:04:14;17.50;78.90
29031;DHT22;16122;50.236;11.734;2022-10-23T14:06:40;17.50;78.90
29031;DHT22;16122;50.236;11.734;2022-10-23T14:09:12;17.60;78.60
29031;DHT22;16122;50.236;11.734;2022-10-23T14:11:38;17.60;78.60
29031;DHT22;16122;50.236;11.734;2022-10-23T14:14:04;17.60;78.90
29031;DHT22;16122;50.236;11.734;2022-10-23T14:16:30;17.60;79.00
29031;DHT22;16122;50.236;11.734;2022-10-23T14:18:56;17.60;79.30
29031;DHT22;16122;50.236;11.734;2022-10-23T14:21:23;17.60;79.30
29031;DHT22;16122;50.236;11.734;2022-10-23T14:23:50;17.60;79.30
29031;DHT22;16122;50.236;11.734;2022-10-23T14:26:25;17.60;79.50
29031;DHT22;16122;50.236;11.734;2022-10-23T14:28:53;17.60;79.60
29031;DHT22;16122;50.236;11.734;2022-10-23T14:31:20;17.60;79.80
29031;DHT22;16122;50.236;11.734;2022-10-23T14:33:51;17.60;80.00
29031;DHT22;16122;50.236;11.734;2022-10-23T14:36:18;17.60;80.20
29031;DHT22;16122;50.236;11.734;2022-10-23T14:38:44;17.60;80.30
29031;DHT22;16122;50.236;11.734;2022-10-23T14:41:14;17.60;80.40
29031;DHT22;16122;50.236;11.734;2022-10-23T14:43:40;17.60;80.60
29031;DHT22;16122;50.236;11.734;2022-10-23T14:46:12;17.60;80.70
29031;DHT22;16122;50.236;11.734;2022-10-23T14:48:39;17.60;80.90
29031;DHT22;16122;50.236;11.734;2022-10-23T14:51:06;17.60;81.20
29031;DHT22;16122;50.236;11.734;2022-10-23T14:53:39;17.60;81.40
29031;DHT22;16122;50.236;11.734;2022-10-23T14:56:05;17.60;81.50
29031;DHT22;16122;50.236;11.734;2022-10-23T14:58:30;17.60;81.60
29031;DHT22;16122;50.236;11.734;2022-10-23T15:01:00;17.60;81.70
29031;DHT22;16122;50.236;11.734;2022-10-23T15:03:27;17.60;81.80
29031;DHT22;16122;50.236;11.734;2022-10-23T15:05:53;17.60;81.90
29031;DHT22;16122;50.236;11.734;2022-10-23T15:08:21;17.60;81.90
29031;DHT22;16122;50.236;11.734;2022-10-23T15:10:47;17.60;82.10
29031;DHT22;16122;50.236;11.734;2022-10-23T15:13:13;17.60;82.10
29031;DHT22;16122;50.236;11.734;2022-10-23T15:15:39;17.60;82.10
29031;DHT22;16122;50.236;11.734;2022-10-23T15:18:05;17.60;82.40
29031;DHT22;16122;50.236;11.734;2022-10-23T15:20:31;17.60;82.80
29031;DHT22;16122;50.236;11.734;2022-10-23T15:22:57;17.60;83.20
29031;DHT22;16122;50.236;11.734;2022-10-23T15:25:23;17.60;83.90
29031;DHT22;16122;50.236;11.734;2022-10-23T15:27:49;17.60;83.80
29031;DHT22;16122;50.236;11.734;2022-10-23T15:30:15;17.60;84.00
29031;DHT22;16122;50.236;11.734;2022-10-23T15:32:41;17.60;84.20
29031;DHT22;16122;50.236;11.734;2022-10-23T15:35:07;17.60;84.30
29031;DHT22;16122;50.236;11.734;2022-10-23T15:37:33;17.60;84.50
29031;DHT22;16122;50.236;11.734;2022-10-23T15:39:59;17.60;84.70
29031;DHT22;16122;50.236;11.734;2022-10-23T15:42:25;17.60;84.60
29031;DHT22;16122;50.236;11.734;2022-10-23T15:44:50;17.60;84.80
29031;DHT22;16122;50.236;11.734;2022-10-23T15:47:16;17.60;84.90
29031;DHT22;16122;50.236;11.734;2022-10-23T15:49:42;17.60;85.00
29031;DHT22;16122;50.236;11.734;2022-10-23T15:52:09;17.60;85.10
29031;DHT22;16122;50.236;11.734;2022-10-23T15:54:35;17.60;85.30
29031;DHT22;16122;50.236;11.734;2022-10-23T15:57:02;17.60;85.40
29031;DHT22;16122;50.236;11.734;2022-10-23T15:59:29;17.60;85.60
29031;DHT22;16122;50.236;11.734;2022-10-23T16:01:55;17.60;85.80
29031;DHT22;16122;50.236;11.734;2022-10-23T16:04:21;17.60;86.20
29031;DHT22;16122;50.236;11.734;2022-10-23T16:06:47;17.60;86.40
29031;DHT22;16122;50.236;11.734;2022-10-23T16:09:13;17.60;86.50
29031;DHT22;16122;50.236;11.734;2022-10-23T16:11:41;17.60;87.30
29031;DHT22;16122;50.236;11.734;2022-10-23T16:14:13;17.60;86.50
29031;DHT22;16122;50.236;11.734;2022-10-23T16:16:40;17.60;86.70
29031;DHT22;16122;50.236;11.734;2022-10-23T16:19:05;17.60;86.80
29031;DHT22;16122;50.236;11.734;2022-10-23T16:21:33;17.60;86.80
29031;DHT22;16122;50.236;11.734;2022-10-23T16:24:01;17.60;86.90
29031;DHT22;16122;50.236;11.734;2022-10-23T16:26:28;17.60;86.90
29031;DHT22;16122;50.236;11.734;2022-10-23T16:28:59;17.60;86.90
29031;DHT22;16122;50.236;11.734;2022-10-23T16:31:26;17.60;87.00
29031;DHT22;16122;50.236;11.734;2022-10-23T16:33:52;17.60;87.10
29031;DHT22;16122;50.236;11.734;2022-10-23T16:36:19;17.60;87.10
29031;DHT22;16122;50.236;11.734;2022-10-23T16:39:05;17.60;87.20
29031;DHT22;16122;50.236;11.734;2022-10-23T16:41:49;17.60;87.40
29031;DHT22;16122;50.236;11.734;2022-10-23T16:44:19;17.60;87.20
29031;DHT22;16122;50.236;11.734;2022-10-23T16:47:11;17.60;87.20
29031;DHT22;16122;50.236;11.734;2022-10-23T16:49:36;17.60;87.20
29031;DHT22;16122;50.236;11.734;2022-10-23T16:52:02;17.60;87.20
29031;DHT22;16122;50.236;11.734;2022-10-23T16:54:28;17.60;87.20
29031;DHT22;16122;50.236;11.734;2022-10-23T16:56:54;17.60;87.20
29031;DHT22;16122;50.236;11.734;2022-10-23T16:59:20;17.60;87.20
29031;DHT22;16122;50.236;11.734;2022-10-23T17:01:46;17.60;87.20
29031;DHT22;16122;50.236;11.734;2022-10-23T17:04:12;17.60;87.30
29031;DHT22;16122;50.236;11.734;2022-10-23T17:06:38;17.60;87.30
29031;DHT22;16122;50.236;11.734;2022-10-23T17:09:04;17.60;87.30
29031;DHT22;16122;50.236;11.734;2022-10-23T17:11:32;17.60;87.20
29031;DHT22;16122;50.236;11.734;2022-10-23T17:13:59;17.60;87.10
29031;DHT22;16122;50.236;11.734;2022-10-23T17:16:35;17.60;87.10
29031;DHT22;16122;50.236;11.734;2022-10-23T17:19:02;17.60;87.90
29031;DHT22;16122;50.236;11.734;2022-10-23T17:21:32;17.60;87.10
29031;DHT22;16122;50.236;11.734;2022-10-23T17:23:58;17.60;87.10
29031;DHT22;16122;50.236;11.734;2022-10-23T17:26:24;17.60;87.10
29031;DHT22;16122;50.236;11.734;2022-10-23T17:28:50;17.60;86.90
29031;DHT22;16122;50.236;11.734;2022-10-23T17:33:45;17.60;87.00
29031;DHT22;16122;50.236;11.734;2022-10-23T17:36:13;17.60;87.20
29031;DHT22;16122;50.236;11.734;2022-10-23T17:38:40;17.60;87.30
29031;DHT22;16122;50.236;11.734;2022-10-23T17:41:09;17.60;87.40
29031;DHT22;16122;50.236;11.734;2022-10-23T17:43:36;17.60;87.50
29031;DHT22;16122;50.236;11.734;2022-10-23T17:46:03;17.60;87.70